sensor_id;sensor_type;location;lat;lon;timestamp;P1;durP1;ratioP1;P2;durP2;ratioP2
21562;SDS011;10942;47.894;11.424;2024-03-08T00:01:35;28.35;;;16.13;;
21562;SDS011;10942;47.894;11.424;2024-03-08T00:04:01;28.08;;;16.15;;
21562;SDS011;10942;47.894;11.424;2024-03-08T00:06:26;27.50;;;15.57;;
21562;SDS011;10942;47.894;11.424;2024-03-08T00:08:52;28.17;;;15.68;;
21562;SDS011;10942;47.894;11.424;2024-03-08T00:11:18;26.75;;;15.43;;
21562;SDS011;10942;47.894;11.424;2024-03-08T00:13:44;27.02;;;15.48;;
21562;SDS011;10942;47.894;11.424;2024-03-08T00:16:10;30.00;;;15.68;;
21562;SDS011;10942;47.894;11.424;2024-03-08T00:18:35;31.33;;;16.30;;
21562;SDS011;10942;47.894;11.424;2024-03-08T00:21:01;32.20;;;16.20;;
21562;SDS011;10942;47.894;11.424;2024-03-08T00:23:27;30.23;;;16.42;;
21562;SDS011;10942;47.894;11.424;2024-03-08T00:25:53;25.90;;;15.88;;
21562;SDS011;10942;47.894;11.424;2024-03-08T00:28:21;32.80;;;16.35;;
21562;SDS011;10942;47.894;11.424;2024-03-08T00:30:46;31.75;;;17.50;;
21562;SDS011;10942;47.894;11.424;2024-03-08T00:33:12;29.00;;;15.23;;
21562;SDS011;10942;47.894;11.424;2024-03-08T00:35:38;26.65;;;15.60;;
21562;SDS011;10942;47.894;11.424;2024-03-08T00:38:03;29.13;;;16.92;;
21562;SDS011;10942;47.894;11.424;2024-03-08T00:40:29;26.95;;;16.50;;
21562;SDS011;10942;47.894;11.424;2024-03-08T00:42:55;29.02;;;15.93;;
21562;SDS011;10942;47.894;11.424;2024-03-08T00:45:20;30.67;;;17.02;;
21562;SDS011;10942;47.894;11.424;2024-03-08T00:47:48;31.33;;;17.73;;
21562;SDS011;10942;47.894;11.424;2024-03-08T00:50:14;31.30;;;16.60;;
21562;SDS011;10942;47.894;11.424;2024-03-08T00:52:39;32.72;;;17.08;;
21562;SDS011;10942;47.894;11.424;2024-03-08T00:55:05;26.67;;;15.02;;
21562;SDS011;10942;47.894;11.424;2024-03-08T00:57:33;27.30;;;16.05;;
21562;SDS011;10942;47.894;11.424;2024-03-08T00:59:58;30.08;;;16.98;;
21562;SDS011;10942;47.894;11.424;2024-03-08T01:02:24;29.70;;;16.73;;
21562;SDS011;10942;47.894;11.424;2024-03-08T01:04:50;33.63;;;17.48;;
21562;SDS011;10942;47.894;11.424;2024-03-08T01:07:15;27.58;;;16.15;;
21562;SDS011;10942;47.894;11.424;2024-03-08T01:09:41;28.92;;;16.45;;
21562;SDS011;10942;47.894;11.424;2024-03-08T01:12:07;31.88;;;17.15;;
21562;SDS011;10942;47.894;11.424;2024-03-08T01:14:33;34.70;;;18.70;;
21562;SDS011;10942;47.894;11.424;2024-03-08T01:16:58;32.42;;;17.95;;
21562;SDS011;10942;47.894;11.424;2024-03-08T01:19:24;33.03;;;17.90;;
21562;SDS011;10942;47.894;11.424;2024-03-08T01:21:50;30.45;;;17.88;;
21562;SDS011;10942;47.894;11.424;2024-03-08T01:24:16;32.17;;;17.73;;
21562;SDS011;10942;47.894;11.424;2024-03-08T01:26:42;33.00;;;18.13;;
21562;SDS011;10942;47.894;11.424;2024-03-08T01:29:07;30.90;;;17.45;;
21562;SDS011;10942;47.894;11.424;2024-03-08T01:31:33;30.52;;;17.45;;
21562;SDS011;10942;47.894;11.424;2024-03-08T01:33:59;34.38;;;18.88;;
21562;SDS011;10942;47.894;11.424;2024-03-08T01:36:25;36.47;;;19.05;;
21562;SDS011;10942;47.894;11.424;2024-03-08T01:38:51;31.58;;;17.48;;
21562;SDS011;10942;47.894;11.424;2024-03-08T01:41:17;32.08;;;18.13;;
21562;SDS011;10942;47.894;11.424;2024-03-08T01:43:43;32.90;;;17.70;;
21562;SDS011;10942;47.894;11.424;2024-03-08T01:46:10;32.03;;;17.92;;
21562;SDS011;10942;47.894;11.424;2024-03-08T01:48:41;30.55;;;18.15;;
21562;SDS011;10942;47.894;11.424;2024-03-08T01:51:07;32.03;;;17.02;;
21562;SDS011;10942;47.894;11.424;2024-03-08T01:53:33;30.30;;;18.08;;
21562;SDS011;10942;47.894;11.424;2024-03-08T01:56:00;33.50;;;18.00;;
21562;SDS011;10942;47.894;11.424;2024-03-08T01:58:27;32.13;;;18.50;;
21562;SDS011;10942;47.894;11.424;2024-03-08T02:00:54;31.48;;;17.45;;
21562;SDS011;10942;47.894;11.424;2024-03-08T02:03:21;36.08;;;18.70;;
21562;SDS011;10942;47.894;11.424;2024-03-08T02:05:47;31.75;;;17.63;;
21562;SDS011;10942;47.894;11.424;2024-03-08T02:08:13;31.50;;;17.45;;
21562;SDS011;10942;47.894;11.424;2024-03-08T02:10:40;30.23;;;18.02;;
21562;SDS011;10942;47.894;11.424;2024-03-08T02:13:09;32.65;;;17.83;;
21562;SDS011;10942;47.894;11.424;2024-03-08T02:15:55;31.67;;;17.83;;
21562;SDS011;10942;47.894;11.424;2024-03-08T02:18:24;33.00;;;17.55;;
21562;SDS011;10942;47.894;11.424;2024-03-08T02:20:53;33.35;;;18.52;;
21562;SDS011;10942;47.894;11.424;2024-03-08T02:23:20;32.75;;;19.05;;
21562;SDS011;10942;47.894;11.424;2024-03-08T02:25:46;33.25;;;18.83;;
21562;SDS011;10942;47.894;11.424;2024-03-08T02:28:13;35.15;;;18.73;;
21562;SDS011;10942;47.894;11.424;2024-03-08T02:30:39;35.13;;;19.70;;
21562;SDS011;10942;47.894;11.424;2024-03-08T02:33:05;34.65;;;19.00;;
21562;SDS011;10942;47.894;11.424;2024-03-08T02:35:31;39.90;;;19.80;;
21562;SDS011;10942;47.894;11.424;2024-03-08T02:37:58;33.45;;;18.15;;
21562;SDS011;10942;47.894;11.424;2024-03-08T02:40:24;32.22;;;17.20;;
21562;SDS011;10942;47.894;11.424;2024-03-08T02:42:50;33.67;;;18.65;;
21562;SDS011;10942;47.894;11.424;2024-03-08T02:45:15;33.13;;;18.10;;
21562;SDS011;10942;47.894;11.424;2024-03-08T02:47:41;36.40;;;18.33;;
21562;SDS011;10942;47.894;11.424;2024-03-08T02:50:07;32.30;;;17.75;;
21562;SDS011;10942;47.894;11.424;2024-03-08T02:52:33;31.48;;;18.70;;
21562;SDS011;10942;47.894;11.424;2024-03-08T02:55:00;33.88;;;19.20;;
21562;SDS011;10942;47.894;11.424;2024-03-08T02:57:26;34.08;;;17.83;;
21562;SDS011;10942;47.894;11.424;2024-03-08T02:59:53;34.30;;;17.40;;
21562;SDS011;10942;47.894;11.424;2024-03-08T03:02:19;33.50;;;17.83;;
21562;SDS011;10942;47.894;11.424;2024-03-08T03:04:45;31.95;;;17.95;;
21562;SDS011;10942;47.894;11.424;2024-03-08T03:07:10;29.90;;;17.50;;
21562;SDS011;10942;47.894;11.424;2024-03-08T03:09:36;29.42;;;17.00;;
21562;SDS011;10942;47.894;11.424;2024-03-08T03:12:02;34.42;;;18.33;;
21562;SDS011;10942;47.894;11.424;2024-03-08T03:14:28;32.25;;;17.17;;
21562;SDS011;10942;47.894;11.424;2024-03-08T03:16:54;32.83;;;17.52;;
21562;SDS011;10942;47.894;11.424;2024-03-08T03:19:22;33.38;;;17.48;;
21562;SDS011;10942;47.894;11.424;2024-03-08T03:21:48;29.80;;;17.08;;
21562;SDS011;10942;47.894;11.424;2024-03-08T03:24:14;31.00;;;17.38;;
21562;SDS011;10942;47.894;11.424;2024-03-08T03:26:41;29.00;;;16.02;;
21562;SDS011;10942;47.894;11.424;2024-03-08T03:29:08;33.63;;;17.52;;
21562;SDS011;10942;47.894;11.424;2024-03-08T03:31:36;31.63;;;17.00;;
21562;SDS011;10942;47.894;11.424;2024-03-08T03:34:01;30.92;;;16.77;;
21562;SDS011;10942;47.894;11.424;2024-03-08T03:36:31;35.38;;;18.90;;
21562;SDS011;10942;47.894;11.424;2024-03-08T03:38:58;32.47;;;17.80;;
21562;SDS011;10942;47.894;11.424;2024-03-08T03:41:35;31.55;;;17.73;;
21562;SDS011;10942;47.894;11.424;2024-03-08T03:44:01;33.50;;;16.92;;
21562;SDS011;10942;47.894;11.424;2024-03-08T03:46:27;32.67;;;17.52;;
21562;SDS011;10942;47.894;11.424;2024-03-08T03:48:56;30.50;;;16.25;;
21562;SDS011;10942;47.894;11.424;2024-03-08T03:51:21;32.72;;;17.33;;
21562;SDS011;10942;47.894;11.424;2024-03-08T03:53:47;32.95;;;18.15;;
21562;SDS011;10942;47.894;11.424;2024-03-08T03:56:13;34.63;;;16.77;;
21562;SDS011;10942;47.894;11.424;2024-03-08T03:58:39;33.63;;;17.98;;
21562;SDS011;10942;47.894;11.424;2024-03-08T04:01:05;31.50;;;17.60;;
21562;SDS011;10942;47.894;11.424;2024-03-08T04:03:30;34.65;;;19.52;;
21562;SDS011;10942;47.894;11.424;2024-03-08T04:05:56;32.85;;;16.48;;
21562;SDS011;10942;47.894;11.424;2024-03-08T04:08:22;31.10;;;17.65;;
21562;SDS011;10942;47.894;11.424;2024-03-08T04:10:51;29.95;;;16.75;;
21562;SDS011;10942;47.894;11.424;2024-03-08T04:13:17;31.42;;;16.35;;
21562;SDS011;10942;47.894;11.424;2024-03-08T04:15:42;31.13;;;17.83;;
21562;SDS011;10942;47.894;11.424;2024-03-08T04:18:13;30.83;;;17.67;;
21562;SDS011;10942;47.894;11.424;2024-03-08T04:20:39;29.00;;;16.73;;
21562;SDS011;10942;47.894;11.424;2024-03-08T04:23:05;34.13;;;18.13;;
21562;SDS011;10942;47.894;11.424;2024-03-08T04:25:31;34.00;;;17.92;;
21562;SDS011;10942;47.894;11.424;2024-03-08T04:27:57;31.00;;;17.23;;
21562;SDS011;10942;47.894;11.424;2024-03-08T04:30:23;34.30;;;19.20;;
21562;SDS011;10942;47.894;11.424;2024-03-08T04:32:49;38.70;;;18.58;;
21562;SDS011;10942;47.894;11.424;2024-03-08T04:35:15;34.08;;;19.15;;
21562;SDS011;10942;47.894;11.424;2024-03-08T04:37:41;33.80;;;18.08;;
21562;SDS011;10942;47.894;11.424;2024-03-08T04:40:07;31.60;;;18.30;;
21562;SDS011;10942;47.894;11.424;2024-03-08T04:42:33;30.92;;;17.88;;
21562;SDS011;10942;47.894;11.424;2024-03-08T04:45:00;34.13;;;18.52;;
21562;SDS011;10942;47.894;11.424;2024-03-08T04:47:26;36.88;;;19.70;;
21562;SDS011;10942;47.894;11.424;2024-03-08T04:49:52;38.38;;;19.10;;
21562;SDS011;10942;47.894;11.424;2024-03-08T04:52:18;33.28;;;18.38;;
21562;SDS011;10942;47.894;11.424;2024-03-08T04:54:43;31.13;;;17.92;;
21562;SDS011;10942;47.894;11.424;2024-03-08T04:57:12;31.00;;;16.75;;
21562;SDS011;10942;47.894;11.424;2024-03-08T04:59:38;34.20;;;18.45;;
21562;SDS011;10942;47.894;11.424;2024-03-08T05:02:03;31.15;;;17.52;;
21562;SDS011;10942;47.894;11.424;2024-03-08T05:04:29;32.92;;;16.90;;
21562;SDS011;10942;47.894;11.424;2024-03-08T05:06:55;34.45;;;19.17;;
21562;SDS011;10942;47.894;11.424;2024-03-08T05:09:21;35.90;;;18.27;;
21562;SDS011;10942;47.894;11.424;2024-03-08T05:11:46;35.63;;;19.42;;
21562;SDS011;10942;47.894;11.424;2024-03-08T05:14:13;34.38;;;18.23;;
21562;SDS011;10942;47.894;11.424;2024-03-08T05:16:43;35.38;;;18.77;;
21562;SDS011;10942;47.894;11.424;2024-03-08T05:19:13;34.55;;;18.33;;
21562;SDS011;10942;47.894;11.424;2024-03-08T05:21:43;31.98;;;17.58;;
21562;SDS011;10942;47.894;11.424;2024-03-08T05:24:09;31.45;;;17.80;;
21562;SDS011;10942;47.894;11.424;2024-03-08T05:26:35;36.00;;;18.63;;
21562;SDS011;10942;47.894;11.424;2024-03-08T05:29:02;33.25;;;18.00;;
21562;SDS011;10942;47.894;11.424;2024-03-08T05:31:28;34.33;;;18.10;;
21562;SDS011;10942;47.894;11.424;2024-03-08T05:33:56;32.70;;;17.75;;
21562;SDS011;10942;47.894;11.424;2024-03-08T05:36:22;30.83;;;16.83;;
21562;SDS011;10942;47.894;11.424;2024-03-08T05:38:48;32.60;;;17.83;;
21562;SDS011;10942;47.894;11.424;2024-03-08T05:41:15;36.85;;;18.48;;
21562;SDS011;10942;47.894;11.424;2024-03-08T05:43:42;32.78;;;17.67;;
21562;SDS011;10942;47.894;11.424;2024-03-08T05:46:08;33.70;;;18.10;;
21562;SDS011;10942;47.894;11.424;2024-03-08T05:48:36;35.50;;;17.95;;
21562;SDS011;10942;47.894;11.424;2024-03-08T05:51:02;30.40;;;17.45;;
21562;SDS011;10942;47.894;11.424;2024-03-08T05:53:28;35.67;;;18.27;;
21562;SDS011;10942;47.894;11.424;2024-03-08T05:55:57;35.78;;;18.45;;
21562;SDS011;10942;47.894;11.424;2024-03-08T05:58:24;33.97;;;17.75;;
21562;SDS011;10942;47.894;11.424;2024-03-08T06:00:49;33.97;;;18.98;;
21562;SDS011;10942;47.894;11.424;2024-03-08T06:03:15;34.25;;;18.73;;
21562;SDS011;10942;47.894;11.424;2024-03-08T06:05:41;34.03;;;18.08;;
21562;SDS011;10942;47.894;11.424;2024-03-08T06:08:07;33.30;;;18.27;;
21562;SDS011;10942;47.894;11.424;2024-03-08T06:10:33;30.85;;;16.90;;
21562;SDS011;10942;47.894;11.424;2024-03-08T06:12:59;36.17;;;17.55;;
21562;SDS011;10942;47.894;11.424;2024-03-08T06:15:25;31.27;;;17.38;;
21562;SDS011;10942;47.894;11.424;2024-03-08T06:17:51;31.98;;;17.08;;
21562;SDS011;10942;47.894;11.424;2024-03-08T06:20:19;32.38;;;18.20;;
21562;SDS011;10942;47.894;11.424;2024-03-08T06:22:45;31.45;;;17.48;;
21562;SDS011;10942;47.894;11.424;2024-03-08T06:25:11;31.17;;;17.10;;
21562;SDS011;10942;47.894;11.424;2024-03-08T06:27:39;28.60;;;16.05;;
21562;SDS011;10942;47.894;11.424;2024-03-08T06:30:07;30.27;;;16.42;;
21562;SDS011;10942;47.894;11.424;2024-03-08T06:32:35;30.88;;;16.52;;
21562;SDS011;10942;47.894;11.424;2024-03-08T06:35:07;29.17;;;16.42;;
21562;SDS011;10942;47.894;11.424;2024-03-08T06:37:33;30.92;;;16.95;;
21562;SDS011;10942;47.894;11.424;2024-03-08T06:39:59;29.88;;;16.23;;
21562;SDS011;10942;47.894;11.424;2024-03-08T06:42:26;26.92;;;15.18;;
21562;SDS011;10942;47.894;11.424;2024-03-08T06:44:52;31.67;;;15.70;;
21562;SDS011;10942;47.894;11.424;2024-03-08T06:47:20;26.83;;;14.80;;
21562;SDS011;10942;47.894;11.424;2024-03-08T06:49:46;29.50;;;16.13;;
21562;SDS011;10942;47.894;11.424;2024-03-08T06:52:12;32.53;;;16.98;;
21562;SDS011;10942;47.894;11.424;2024-03-08T06:54:37;33.33;;;15.75;;
21562;SDS011;10942;47.894;11.424;2024-03-08T06:57:04;31.08;;;16.27;;
21562;SDS011;10942;47.894;11.424;2024-03-08T06:59:30;29.88;;;16.35;;
21562;SDS011;10942;47.894;11.424;2024-03-08T07:01:56;27.40;;;15.90;;
21562;SDS011;10942;47.894;11.424;2024-03-08T07:04:24;39.50;;;21.75;;
21562;SDS011;10942;47.894;11.424;2024-03-08T07:06:54;31.63;;;18.75;;
21562;SDS011;10942;47.894;11.424;2024-03-08T07:09:19;29.80;;;15.90;;
21562;SDS011;10942;47.894;11.424;2024-03-08T07:11:45;36.05;;;17.77;;
21562;SDS011;10942;47.894;11.424;2024-03-08T07:14:11;31.23;;;16.45;;
21562;SDS011;10942;47.894;11.424;2024-03-08T07:16:40;29.13;;;16.58;;
21562;SDS011;10942;47.894;11.424;2024-03-08T07:19:06;30.55;;;15.55;;
21562;SDS011;10942;47.894;11.424;2024-03-08T07:21:32;29.95;;;15.60;;
21562;SDS011;10942;47.894;11.424;2024-03-08T07:23:58;27.52;;;14.85;;
21562;SDS011;10942;47.894;11.424;2024-03-08T07:26:26;27.85;;;15.02;;
21562;SDS011;10942;47.894;11.424;2024-03-08T07:28:52;27.17;;;15.07;;
21562;SDS011;10942;47.894;11.424;2024-03-08T07:31:22;28.70;;;16.27;;
21562;SDS011;10942;47.894;11.424;2024-03-08T07:33:50;26.63;;;15.45;;
21562;SDS011;10942;47.894;11.424;2024-03-08T07:36:16;31.65;;;16.13;;
21562;SDS011;10942;47.894;11.424;2024-03-08T07:38:41;30.30;;;16.58;;
21562;SDS011;10942;47.894;11.424;2024-03-08T07:41:07;27.02;;;15.50;;
21562;SDS011;10942;47.894;11.424;2024-03-08T07:43:33;25.73;;;14.68;;
21562;SDS011;10942;47.894;11.424;2024-03-08T07:45:59;30.00;;;16.77;;
21562;SDS011;10942;47.894;11.424;2024-03-08T07:48:25;27.17;;;15.50;;
21562;SDS011;10942;47.894;11.424;2024-03-08T07:50:50;24.48;;;13.60;;
21562;SDS011;10942;47.894;11.424;2024-03-08T07:53:16;26.50;;;14.00;;
21562;SDS011;10942;47.894;11.424;2024-03-08T07:55:42;24.67;;;14.40;;
21562;SDS011;10942;47.894;11.424;2024-03-08T07:58:09;27.98;;;15.43;;
21562;SDS011;10942;47.894;11.424;2024-03-08T08:00:36;27.55;;;16.10;;
21562;SDS011;10942;47.894;11.424;2024-03-08T08:03:02;25.27;;;14.85;;
21562;SDS011;10942;47.894;11.424;2024-03-08T08:05:28;30.45;;;17.50;;
21562;SDS011;10942;47.894;11.424;2024-03-08T08:07:54;31.05;;;16.45;;
21562;SDS011;10942;47.894;11.424;2024-03-08T08:10:21;28.15;;;16.15;;
21562;SDS011;10942;47.894;11.424;2024-03-08T08:12:49;30.40;;;16.33;;
21562;SDS011;10942;47.894;11.424;2024-03-08T08:15:16;26.55;;;15.68;;
21562;SDS011;10942;47.894;11.424;2024-03-08T08:17:43;29.90;;;16.88;;
21562;SDS011;10942;47.894;11.424;2024-03-08T08:20:10;32.47;;;17.70;;
21562;SDS011;10942;47.894;11.424;2024-03-08T08:22:39;23.70;;;14.05;;
21562;SDS011;10942;47.894;11.424;2024-03-08T08:25:06;21.75;;;12.57;;
21562;SDS011;10942;47.894;11.424;2024-03-08T08:27:32;24.23;;;14.15;;
21562;SDS011;10942;47.894;11.424;2024-03-08T08:29:58;21.60;;;12.93;;
21562;SDS011;10942;47.894;11.424;2024-03-08T08:32:24;22.83;;;13.63;;
21562;SDS011;10942;47.894;11.424;2024-03-08T08:34:50;20.35;;;12.98;;
21562;SDS011;10942;47.894;11.424;2024-03-08T08:37:15;32.72;;;22.70;;
21562;SDS011;10942;47.894;11.424;2024-03-08T08:39:41;31.92;;;24.48;;
21562;SDS011;10942;47.894;11.424;2024-03-08T08:42:07;22.02;;;13.75;;
21562;SDS011;10942;47.894;11.424;2024-03-08T08:44:35;21.65;;;13.90;;
21562;SDS011;10942;47.894;11.424;2024-03-08T08:47:01;19.88;;;11.93;;
21562;SDS011;10942;47.894;11.424;2024-03-08T08:49:28;24.45;;;13.45;;
21562;SDS011;10942;47.894;11.424;2024-03-08T08:51:55;18.40;;;12.10;;
21562;SDS011;10942;47.894;11.424;2024-03-08T08:54:23;18.85;;;11.40;;
21562;SDS011;10942;47.894;11.424;2024-03-08T08:56:50;22.15;;;13.45;;
21562;SDS011;10942;47.894;11.424;2024-03-08T08:59:16;19.98;;;12.68;;
21562;SDS011;10942;47.894;11.424;2024-03-08T09:01:44;20.50;;;12.55;;
21562;SDS011;10942;47.894;11.424;2024-03-08T09:04:14;21.58;;;12.48;;
21562;SDS011;10942;47.894;11.424;2024-03-08T09:06:40;18.50;;;12.60;;
21562;SDS011;10942;47.894;11.424;2024-03-08T09:09:07;18.13;;;11.27;;
21562;SDS011;10942;47.894;11.424;2024-03-08T09:11:36;17.35;;;11.20;;
21562;SDS011;10942;47.894;11.424;2024-03-08T09:14:06;16.77;;;11.00;;
21562;SDS011;10942;47.894;11.424;2024-03-08T09:16:33;20.85;;;12.90;;
21562;SDS011;10942;47.894;11.424;2024-03-08T09:18:59;18.35;;;11.32;;
21562;SDS011;10942;47.894;11.424;2024-03-08T09:21:25;18.13;;;11.38;;
21562;SDS011;10942;47.894;11.424;2024-03-08T09:23:52;15.32;;;9.95;;
21562;SDS011;10942;47.894;11.424;2024-03-08T09:26:18;17.15;;;11.23;;
21562;SDS011;10942;47.894;11.424;2024-03-08T09:28:44;14.73;;;10.52;;
21562;SDS011;10942;47.894;11.424;2024-03-08T09:31:10;15.93;;;10.43;;
21562;SDS011;10942;47.894;11.424;2024-03-08T09:33:37;16.60;;;10.85;;
21562;SDS011;10942;47.894;11.424;2024-03-08T09:36:04;16.17;;;11.48;;
21562;SDS011;10942;47.894;11.424;2024-03-08T09:38:32;15.95;;;10.57;;
21562;SDS011;10942;47.894;11.424;2024-03-08T09:40:59;14.77;;;10.25;;
21562;SDS011;10942;47.894;11.424;2024-03-08T09:43:27;15.77;;;10.52;;
21562;SDS011;10942;47.894;11.424;2024-03-08T09:45:53;13.43;;;9.32;;
21562;SDS011;10942;47.894;11.424;2024-03-08T09:48:20;16.88;;;10.10;;
21562;SDS011;10942;47.894;11.424;2024-03-08T09:50:47;17.10;;;10.82;;
21562;SDS011;10942;47.894;11.424;2024-03-08T09:53:14;15.63;;;9.77;;
21562;SDS011;10942;47.894;11.424;2024-03-08T09:55:40;14.40;;;9.95;;
21562;SDS011;10942;47.894;11.424;2024-03-08T09:58:10;14.95;;;10.02;;
21562;SDS011;10942;47.894;11.424;2024-03-08T10:00:55;15.57;;;10.20;;
21562;SDS011;10942;47.894;11.424;2024-03-08T10:03:27;16.38;;;9.57;;
21562;SDS011;10942;47.894;11.424;2024-03-08T10:05:53;16.65;;;10.77;;
21562;SDS011;10942;47.894;11.424;2024-03-08T10:08:21;15.15;;;10.18;;
21562;SDS011;10942;47.894;11.424;2024-03-08T10:10:47;15.70;;;10.15;;
21562;SDS011;10942;47.894;11.424;2024-03-08T10:13:14;16.40;;;10.70;;
21562;SDS011;10942;47.894;11.424;2024-03-08T10:15:41;16.42;;;10.25;;
21562;SDS011;10942;47.894;11.424;2024-03-08T10:18:08;15.27;;;10.10;;
21562;SDS011;10942;47.894;11.424;2024-03-08T10:20:35;15.27;;;10.93;;
21562;SDS011;10942;47.894;11.424;2024-03-08T10:23:02;15.90;;;10.60;;
21562;SDS011;10942;47.894;11.424;2024-03-08T10:25:30;14.55;;;9.57;;
21562;SDS011;10942;47.894;11.424;2024-03-08T10:27:56;15.07;;;10.38;;
21562;SDS011;10942;47.894;11.424;2024-03-08T10:30:22;14.82;;;10.48;;
21562;SDS011;10942;47.894;11.424;2024-03-08T10:32:48;13.82;;;9.63;;
21562;SDS011;10942;47.894;11.424;2024-03-08T10:35:14;16.50;;;11.00;;
21562;SDS011;10942;47.894;11.424;2024-03-08T10:37:45;14.68;;;10.68;;
21562;SDS011;10942;47.894;11.424;2024-03-08T10:40:16;14.43;;;9.23;;
21562;SDS011;10942;47.894;11.424;2024-03-08T10:42:47;14.60;;;9.68;;
21562;SDS011;10942;47.894;11.424;2024-03-08T10:45:23;14.85;;;10.02;;
21562;SDS011;10942;47.894;11.424;2024-03-08T10:50:35;16.83;;;9.82;;
21562;SDS011;10942;47.894;11.424;2024-03-08T10:53:01;15.88;;;10.60;;
21562;SDS011;10942;47.894;11.424;2024-03-08T10:55:31;16.77;;;11.70;;
21562;SDS011;10942;47.894;11.424;2024-03-08T10:57:59;18.25;;;10.30;;
21562;SDS011;10942;47.894;11.424;2024-03-08T11:00:25;16.98;;;10.48;;
21562;SDS011;10942;47.894;11.424;2024-03-08T11:02:52;15.73;;;11.05;;
21562;SDS011;10942;47.894;11.424;2024-03-08T11:08:17;16.63;;;10.07;;
21562;SDS011;10942;47.894;11.424;2024-03-08T11:10:50;16.90;;;10.43;;
21562;SDS011;10942;47.894;11.424;2024-03-08T11:13:36;17.75;;;10.40;;
21562;SDS011;10942;47.894;11.424;2024-03-08T11:16:12;16.17;;;9.98;;
21562;SDS011;10942;47.894;11.424;2024-03-08T11:18:58;14.75;;;10.15;;
21562;SDS011;10942;47.894;11.424;2024-03-08T11:21:30;18.83;;;11.48;;
21562;SDS011;10942;47.894;11.424;2024-03-08T11:23:59;19.17;;;10.52;;
21562;SDS011;10942;47.894;11.424;2024-03-08T11:26:26;17.95;;;11.23;;
21562;SDS011;10942;47.894;11.424;2024-03-08T11:28:52;17.52;;;10.95;;
21562;SDS011;10942;47.894;11.424;2024-03-08T11:33:46;15.27;;;10.45;;
21562;SDS011;10942;47.894;11.424;2024-03-08T11:36:20;16.05;;;9.98;;
21562;SDS011;10942;47.894;11.424;2024-03-08T11:38:49;17.00;;;10.00;;
21562;SDS011;10942;47.894;11.424;2024-03-08T11:41:23;17.35;;;10.90;;
21562;SDS011;10942;47.894;11.424;2024-03-08T11:43:52;16.40;;;10.70;;
21562;SDS011;10942;47.894;11.424;2024-03-08T11:46:30;19.80;;;11.27;;
21562;SDS011;10942;47.894;11.424;2024-03-08T11:48:56;17.10;;;10.48;;
21562;SDS011;10942;47.894;11.424;2024-03-08T11:51:22;17.10;;;11.60;;
21562;SDS011;10942;47.894;11.424;2024-03-08T11:53:49;16.30;;;10.25;;
21562;SDS011;10942;47.894;11.424;2024-03-08T11:56:15;19.55;;;10.68;;
21562;SDS011;10942;47.894;11.424;2024-03-08T11:58:41;16.88;;;11.30;;
21562;SDS011;10942;47.894;11.424;2024-03-08T12:01:17;19.73;;;10.70;;
21562;SDS011;10942;47.894;11.424;2024-03-08T12:03:43;15.63;;;9.73;;
21562;SDS011;10942;47.894;11.424;2024-03-08T12:06:09;15.45;;;9.80;;
21562;SDS011;10942;47.894;11.424;2024-03-08T12:08:35;14.27;;;9.13;;
21562;SDS011;10942;47.894;11.424;2024-03-08T12:11:04;15.50;;;9.82;;
21562;SDS011;10942;47.894;11.424;2024-03-08T12:13:31;16.13;;;10.65;;
21562;SDS011;10942;47.894;11.424;2024-03-08T12:15:59;18.17;;;10.98;;
21562;SDS011;10942;47.894;11.424;2024-03-08T12:18:37;18.05;;;10.90;;
21562;SDS011;10942;47.894;11.424;2024-03-08T12:21:04;17.10;;;10.63;;
21562;SDS011;10942;47.894;11.424;2024-03-08T12:23:32;17.23;;;11.07;;
21562;SDS011;10942;47.894;11.424;2024-03-08T12:26:08;14.40;;;9.55;;
21562;SDS011;10942;47.894;11.424;2024-03-08T12:28:48;17.83;;;10.40;;
21562;SDS011;10942;47.894;11.424;2024-03-08T12:31:15;16.55;;;9.95;;
21562;SDS011;10942;47.894;11.424;2024-03-08T12:33:51;15.07;;;9.38;;
21562;SDS011;10942;47.894;11.424;2024-03-08T12:36:24;18.83;;;10.35;;
21562;SDS011;10942;47.894;11.424;2024-03-08T12:38:50;16.25;;;9.73;;
21562;SDS011;10942;47.894;11.424;2024-03-08T12:41:19;17.10;;;10.57;;
21562;SDS011;10942;47.894;11.424;2024-03-08T12:43:46;16.98;;;10.35;;
21562;SDS011;10942;47.894;11.424;2024-03-08T12:46:20;16.45;;;10.32;;
21562;SDS011;10942;47.894;11.424;2024-03-08T12:48:47;15.48;;;9.55;;
21562;SDS011;10942;47.894;11.424;2024-03-08T12:51:13;16.45;;;9.73;;
21562;SDS011;10942;47.894;11.424;2024-03-08T12:53:41;14.45;;;8.68;;
21562;SDS011;10942;47.894;11.424;2024-03-08T12:56:09;16.20;;;10.10;;
21562;SDS011;10942;47.894;11.424;2024-03-08T12:58:36;16.83;;;9.98;;
21562;SDS011;10942;47.894;11.424;2024-03-08T13:01:05;14.32;;;8.95;;
21562;SDS011;10942;47.894;11.424;2024-03-08T13:03:33;13.48;;;9.35;;
21562;SDS011;10942;47.894;11.424;2024-03-08T13:06:01;15.32;;;8.63;;
21562;SDS011;10942;47.894;11.424;2024-03-08T13:08:27;15.27;;;9.85;;
21562;SDS011;10942;47.894;11.424;2024-03-08T13:10:54;14.00;;;9.43;;
21562;SDS011;10942;47.894;11.424;2024-03-08T13:13:20;16.60;;;9.80;;
21562;SDS011;10942;47.894;11.424;2024-03-08T13:15:46;15.48;;;9.43;;
21562;SDS011;10942;47.894;11.424;2024-03-08T13:18:12;14.63;;;9.40;;
21562;SDS011;10942;47.894;11.424;2024-03-08T13:20:37;17.08;;;9.57;;
21562;SDS011;10942;47.894;11.424;2024-03-08T13:23:04;14.80;;;9.52;;
21562;SDS011;10942;47.894;11.424;2024-03-08T13:25:33;16.08;;;9.88;;
21562;SDS011;10942;47.894;11.424;2024-03-08T13:27:58;15.88;;;10.00;;
21562;SDS011;10942;47.894;11.424;2024-03-08T13:30:26;17.45;;;10.57;;
21562;SDS011;10942;47.894;11.424;2024-03-08T13:32:55;17.60;;;10.77;;
21562;SDS011;10942;47.894;11.424;2024-03-08T13:35:20;23.10;;;12.38;;
21562;SDS011;10942;47.894;11.424;2024-03-08T13:37:49;20.20;;;11.52;;
21562;SDS011;10942;47.894;11.424;2024-03-08T13:40:16;19.27;;;11.07;;
21562;SDS011;10942;47.894;11.424;2024-03-08T13:42:45;35.88;;;24.40;;
21562;SDS011;10942;47.894;11.424;2024-03-08T13:45:12;17.98;;;10.88;;
21562;SDS011;10942;47.894;11.424;2024-03-08T13:47:38;19.08;;;11.40;;
21562;SDS011;10942;47.894;11.424;2024-03-08T13:50:09;15.40;;;9.65;;
21562;SDS011;10942;47.894;11.424;2024-03-08T13:52:37;19.67;;;10.98;;
21562;SDS011;10942;47.894;11.424;2024-03-08T13:55:04;20.10;;;11.32;;
21562;SDS011;10942;47.894;11.424;2024-03-08T13:57:31;19.00;;;12.00;;
21562;SDS011;10942;47.894;11.424;2024-03-08T13:59:57;17.20;;;11.50;;
21562;SDS011;10942;47.894;11.424;2024-03-08T14:02:23;18.73;;;12.02;;
21562;SDS011;10942;47.894;11.424;2024-03-08T14:04:56;18.92;;;10.98;;
21562;SDS011;10942;47.894;11.424;2024-03-08T14:07:22;21.92;;;12.18;;
21562;SDS011;10942;47.894;11.424;2024-03-08T14:09:51;19.08;;;11.70;;
21562;SDS011;10942;47.894;11.424;2024-03-08T14:12:18;18.13;;;10.98;;
21562;SDS011;10942;47.894;11.424;2024-03-08T14:14:44;19.27;;;11.60;;
21562;SDS011;10942;47.894;11.424;2024-03-08T14:17:10;20.63;;;12.20;;
21562;SDS011;10942;47.894;11.424;2024-03-08T14:19:39;21.23;;;12.52;;